createdAt,value
2019-05-23T00:01:33.301Z,51.89
2019-05-23T00:04:19.397Z,51.69
2019-05-23T00:09:46.388Z,51.33
2019-05-23T00:12:35.444Z,51.30
2019-05-23T00:15:12.208Z,51.03
2019-05-23T00:17:41.369Z,50.28
2019-05-23T00:20:11.862Z,50.14
2019-05-23T00:22:41.062Z,49.95
2019-05-23T00:25:10.907Z,49.97
2019-05-23T00:27:42.963Z,50.06
2019-05-23T00:30:14.417Z,50.05
2019-05-23T00:32:47.502Z,50.08
2019-05-23T00:35:17.571Z,50.96
2019-05-23T00:37:47.681Z,51.09
2019-05-23T00:40:17.823Z,51.18
2019-05-23T00:42:47.394Z,51.01
2019-05-23T00:45:17.679Z,51.21
2019-05-23T00:47:47.123Z,51.09
2019-05-23T00:50:20.200Z,50.89
2019-05-23T00:52:51.932Z,50.53
2019-05-23T00:55:22.626Z,51.37
2019-05-23T00:58:10.126Z,51.21
2019-05-23T01:00:39.658Z,51.11
2019-05-23T01:03:11.404Z,51.26
2019-05-23T01:05:41.644Z,51.27
2019-05-23T01:08:11.600Z,51.41
2019-05-23T01:10:41.806Z,51.33
2019-05-23T01:13:11.238Z,51.47
2019-05-23T01:15:41.688Z,51.57
2019-05-23T01:18:11.728Z,51.62
2019-05-23T01:20:51.858Z,51.37
2019-05-23T01:23:22.768Z,51.09
2019-05-23T01:25:52.374Z,51.20
2019-05-23T01:28:22.996Z,50.98
2019-05-23T01:30:54.900Z,50.88
2019-05-23T01:33:24.825Z,50.70
2019-05-23T01:35:54.107Z,50.93
2019-05-23T01:38:24.145Z,51.04
2019-05-23T01:40:54.110Z,50.66
2019-05-23T01:43:25.502Z,50.57
2019-05-23T01:45:54.799Z,50.59
2019-05-23T01:48:24.209Z,50.46
2019-05-23T01:50:53.380Z,50.55
2019-05-23T01:53:23.729Z,50.40
2019-05-23T01:55:53.187Z,50.08
2019-05-23T01:58:22.902Z,49.92
2019-05-23T02:00:53.590Z,49.92
2019-05-23T02:03:23.102Z,50.01
2019-05-23T02:05:52.282Z,50.14
2019-05-23T02:08:22.255Z,51.26
2019-05-23T02:10:51.881Z,51.54
2019-05-23T02:13:21.690Z,52.20
2019-05-23T02:15:51.527Z,52.23
2019-05-23T02:18:20.797Z,52.56
2019-05-23T02:20:50.837Z,52.74
2019-05-23T02:23:38.011Z,52.95
2019-05-23T02:26:08.795Z,52.56
2019-05-23T02:28:38.242Z,52.46
2019-05-23T02:31:08.045Z,52.52
2019-05-23T02:33:37.396Z,53.03
2019-05-23T02:36:06.832Z,52.76
2019-05-23T02:38:46.932Z,52.99
2019-05-23T02:41:34.004Z,52.79
2019-05-23T02:44:05.005Z,52.20
2019-05-23T02:46:51.245Z,52.34
2019-05-23T02:49:25.614Z,52.67
2019-05-23T02:51:56.804Z,52.71
2019-05-23T02:54:29.268Z,52.99
2019-05-23T02:57:00.420Z,53.04
2019-05-23T02:59:35.599Z,52.71
2019-05-23T03:02:35.525Z,52.89
2019-05-23T03:05:09.426Z,53.54
2019-05-23T03:07:40.253Z,53.59
2019-05-23T03:10:09.605Z,53.72
2019-05-23T03:12:41.109Z,53.03
2019-05-23T03:15:12.778Z,53.59
2019-05-23T03:17:44.658Z,54.02
2019-05-23T03:20:16.021Z,54.29
2019-05-23T03:22:51.048Z,54.53
2019-05-23T03:25:33.587Z,54.82
2019-05-23T03:28:04.806Z,55.03
2019-05-23T03:30:38.568Z,55.27
2019-05-23T03:33:10.552Z,55.39
2019-05-23T03:35:41.650Z,55.59
2019-05-23T03:38:11.190Z,55.67
2019-05-23T03:40:41.345Z,55.82
2019-05-23T03:43:11.862Z,55.96
2019-05-23T03:45:47.671Z,56.00
2019-05-23T03:48:18.987Z,56.01
2019-05-23T03:50:50.319Z,55.99
2019-05-23T03:53:21.157Z,56.05
2019-05-23T03:55:51.697Z,55.78
2019-05-23T03:58:23.131Z,56.03
2019-05-23T04:00:54.259Z,56.11
2019-05-23T04:03:24.653Z,56.08
2019-05-23T04:05:54.357Z,56.51
2019-05-23T04:08:24.859Z,55.80
2019-05-23T04:10:55.718Z,55.14
2019-05-23T04:13:25.353Z,54.86
2019-05-23T04:15:54.618Z,54.26
2019-05-23T04:18:23.896Z,54.13
2019-05-23T04:20:53.495Z,54.01
2019-05-23T04:23:22.719Z,53.63
2019-05-23T04:25:51.962Z,53.45
2019-05-23T04:28:21.626Z,53.63
2019-05-23T04:30:50.806Z,53.82
2019-05-23T04:33:20.903Z,53.43
2019-05-23T04:35:50.162Z,53.21
2019-05-23T04:38:19.440Z,53.32
2019-05-23T04:40:48.870Z,53.16
2019-05-23T04:43:18.059Z,53.08
2019-05-23T04:45:47.713Z,52.74
2019-05-23T04:48:16.892Z,52.85
2019-05-23T04:50:46.212Z,52.50
2019-05-23T04:53:15.951Z,52.28
2019-05-23T04:55:47.450Z,52.27
2019-05-23T04:58:17.106Z,51.93
2019-05-23T05:00:46.730Z,52.27
2019-05-23T05:03:18.166Z,51.82
2019-05-23T05:05:47.733Z,51.55
2019-05-23T05:08:17.109Z,51.87
2019-05-23T05:10:47.301Z,51.72
2019-05-23T05:13:16.935Z,51.47
2019-05-23T05:15:46.283Z,51.27
2019-05-23T05:18:16.286Z,51.55
2019-05-23T05:20:45.469Z,51.30
2019-05-23T05:23:14.674Z,51.47
2019-05-23T05:25:43.854Z,51.32
2019-05-23T05:28:13.069Z,51.47
2019-05-23T05:31:00.259Z,51.16
2019-05-23T05:33:29.648Z,50.94
2019-05-23T05:35:58.962Z,50.82
2019-05-23T05:38:29.115Z,50.49
2019-05-23T05:40:58.599Z,50.42
2019-05-23T05:43:29.613Z,50.40
2019-05-23T05:45:59.246Z,50.54
2019-05-23T05:48:29.569Z,50.89
2019-05-23T05:50:58.848Z,51.43
2019-05-23T05:53:42.761Z,51.74
2019-05-23T05:56:12.047Z,51.80
2019-05-23T05:58:41.212Z,51.96
2019-05-23T06:01:11.799Z,52.08
2019-05-23T06:03:41.366Z,52.24
2019-05-23T06:06:18.897Z,52.22
2019-05-23T06:08:58.945Z,52.23
2019-05-23T06:11:28.869Z,53.05
2019-05-23T06:13:58.133Z,52.71
2019-05-23T06:16:28.017Z,53.35
2019-05-23T06:18:57.512Z,52.40
2019-05-23T06:21:28.478Z,52.24
2019-05-23T06:23:57.985Z,52.99
2019-05-23T06:26:27.210Z,52.56
2019-05-23T06:28:56.742Z,53.11
2019-05-23T06:31:25.990Z,52.77
2019-05-23T06:33:55.450Z,52.42
2019-05-23T06:36:24.893Z,52.30
2019-05-23T06:38:55.891Z,52.28
2019-05-23T06:41:25.199Z,52.45
2019-05-23T06:43:54.410Z,51.44
2019-05-23T06:46:24.232Z,50.38
2019-05-23T06:48:53.576Z,49.77
2019-05-23T06:51:23.573Z,49.16
2019-05-23T06:53:53.855Z,47.71
2019-05-23T06:56:23.233Z,45.95
2019-05-23T06:58:52.526Z,44.81
2019-05-23T07:01:22.910Z,44.07
2019-05-23T07:03:52.160Z,43.40
2019-05-23T07:06:24.249Z,43.01
2019-05-23T07:08:54.104Z,43.14
2019-05-23T07:11:23.840Z,41.75
2019-05-23T07:13:53.482Z,40.25
2019-05-23T07:16:22.692Z,41.27
2019-05-23T07:18:51.969Z,39.26
2019-05-23T07:21:21.308Z,37.77
2019-05-23T07:23:50.640Z,36.89
2019-05-23T07:26:19.998Z,36.01
2019-05-23T07:28:49.463Z,35.20
2019-05-23T07:31:18.810Z,35.42
2019-05-23T07:34:01.135Z,35.47
2019-05-23T07:36:18.928Z,34.64
2019-05-23T07:38:48.195Z,34.62
2019-05-23T07:41:18.261Z,34.62
2019-05-23T07:43:47.725Z,35.16
2019-05-23T07:46:17.002Z,35.73
2019-05-23T07:48:46.413Z,37.11
2019-05-23T07:51:15.763Z,37.81
2019-05-23T07:53:47.167Z,37.94
2019-05-23T07:56:20.849Z,38.19
2019-05-23T07:58:50.078Z,38.82
2019-05-23T08:01:23.920Z,40.10
2019-05-23T08:03:53.938Z,40.22
2019-05-23T08:06:24.219Z,40.50
2019-05-23T08:08:54.049Z,40.21
2019-05-23T08:11:24.815Z,40.58
2019-05-23T08:13:55.110Z,40.59
2019-05-23T08:16:24.767Z,40.48
2019-05-23T08:18:54.231Z,41.71
2019-05-23T08:21:23.479Z,40.61
2019-05-23T08:23:52.725Z,40.81
2019-05-23T08:26:23.741Z,41.29
2019-05-23T08:29:22.230Z,41.43
2019-05-23T08:31:24.515Z,41.09
2019-05-23T08:33:53.897Z,38.45
2019-05-23T08:36:24.158Z,38.85
2019-05-23T08:38:53.434Z,39.67
2019-05-23T08:41:22.712Z,39.86
2019-05-23T08:43:52.422Z,40.57
2019-05-23T08:46:22.159Z,40.45
2019-05-23T08:48:51.395Z,41.56
2019-05-23T08:51:20.597Z,42.15
2019-05-23T08:53:49.947Z,43.07
2019-05-23T08:56:19.891Z,43.09
2019-05-23T08:58:49.402Z,42.32
2019-05-23T09:01:18.575Z,41.67
2019-05-23T09:03:48.670Z,42.90
2019-05-23T09:06:18.239Z,42.95
2019-05-23T09:08:48.220Z,42.21
2019-05-23T09:11:17.780Z,42.32
2019-05-23T09:13:51.589Z,42.34
2019-05-23T09:16:20.849Z,42.06
2019-05-23T09:18:50.101Z,41.49
2019-05-23T09:21:19.291Z,40.79
2019-05-23T09:23:48.391Z,41.38
2019-05-23T09:26:18.103Z,41.44
2019-05-23T09:28:47.301Z,39.99
2019-05-23T09:31:16.822Z,40.53
2019-05-23T09:33:46.070Z,40.34
2019-05-23T09:36:15.245Z,40.46
2019-05-23T09:38:44.437Z,37.53
2019-05-23T09:41:13.640Z,36.92
2019-05-23T09:43:42.796Z,35.66
2019-05-23T09:46:11.991Z,35.99
2019-05-23T09:48:41.500Z,35.69
2019-05-23T09:51:10.742Z,35.25
2019-05-23T09:53:46.331Z,33.11
2019-05-23T09:56:11.818Z,34.32
2019-05-23T09:58:40.985Z,35.19
2019-05-23T10:01:10.447Z,35.97
2019-05-23T10:03:39.622Z,35.40
2019-05-23T10:06:08.841Z,35.23
2019-05-23T10:08:38.031Z,36.21
2019-05-23T10:11:08.064Z,36.04
2019-05-23T10:13:39.350Z,35.99
2019-05-23T10:16:09.761Z,35.79
2019-05-23T10:18:39.090Z,36.70
2019-05-23T10:21:08.350Z,35.57
2019-05-23T10:23:37.529Z,33.09
2019-05-23T10:26:07.350Z,32.58
2019-05-23T10:28:36.542Z,33.20
2019-05-23T10:31:07.376Z,34.13
2019-05-23T10:33:36.800Z,34.21
2019-05-23T10:36:06.225Z,34.58
2019-05-23T10:38:35.400Z,34.51
2019-05-23T10:41:04.870Z,35.26
2019-05-23T10:43:34.182Z,35.73
2019-05-23T10:46:03.508Z,36.35
2019-05-23T10:48:32.753Z,36.06
2019-05-23T10:51:02.587Z,36.18
2019-05-23T10:53:31.787Z,35.98
2019-05-23T10:56:01.035Z,35.69
2019-05-23T10:58:30.675Z,36.16
2019-05-23T11:01:01.757Z,36.09
2019-05-23T11:03:31.429Z,35.97
2019-05-23T11:06:14.919Z,36.21
2019-05-23T11:08:31.619Z,36.98
2019-05-23T11:11:00.858Z,37.27
2019-05-23T11:13:30.430Z,36.04
2019-05-23T11:15:59.931Z,35.38
2019-05-23T11:18:29.278Z,34.83
2019-05-23T11:20:58.544Z,35.48
2019-05-23T11:23:29.372Z,35.81
2019-05-23T11:26:01.216Z,34.58
2019-05-23T11:28:31.013Z,34.86
2019-05-23T11:31:01.685Z,34.79
2019-05-23T11:33:30.926Z,33.77
2019-05-23T11:36:00.144Z,34.21
2019-05-23T11:38:30.073Z,34.89
2019-05-23T11:40:59.425Z,32.73
2019-05-23T11:43:28.609Z,32.64
2019-05-23T11:45:59.539Z,30.81
2019-05-23T11:48:29.006Z,31.04
2019-05-23T11:50:58.311Z,31.57
2019-05-23T11:53:27.482Z,31.06
2019-05-23T11:55:56.771Z,31.12
2019-05-23T11:58:26.586Z,31.98
2019-05-23T12:01:00.514Z,32.48
2019-05-23T12:03:29.799Z,31.84
2019-05-23T12:05:58.976Z,30.78
2019-05-23T12:08:28.164Z,31.05
2019-05-23T12:10:57.996Z,30.85
2019-05-23T12:13:27.168Z,30.36
2019-05-23T12:15:56.437Z,28.90
2019-05-23T12:18:26.065Z,29.25
2019-05-23T12:20:59.610Z,29.30
2019-05-23T12:23:28.460Z,29.63
2019-05-23T12:25:57.795Z,29.88
2019-05-23T12:28:27.122Z,30.92
2019-05-23T12:30:56.598Z,31.15
2019-05-23T12:33:26.063Z,30.91
2019-05-23T12:35:55.311Z,30.88
2019-05-23T12:38:24.508Z,30.54
2019-05-23T12:40:53.689Z,30.46
2019-05-23T12:43:22.891Z,29.60
2019-05-23T12:45:52.086Z,27.04
2019-05-23T12:48:25.709Z,25.42
2019-05-23T12:51:02.641Z,27.65
2019-05-23T12:53:31.878Z,28.96
2019-05-23T12:56:01.243Z,29.38
2019-05-23T12:58:32.377Z,30.00
2019-05-23T13:01:03.168Z,30.76
2019-05-23T13:03:32.710Z,30.43
2019-05-23T13:06:02.261Z,30.43
2019-05-23T13:08:31.412Z,28.99
2019-05-23T13:11:00.909Z,29.31
2019-05-23T13:13:30.154Z,29.15
2019-05-23T13:15:59.585Z,28.01
2019-05-23T13:18:28.974Z,29.14
2019-05-23T13:20:59.684Z,32.06
2019-05-23T13:23:29.593Z,32.90
2019-05-23T13:25:58.681Z,35.14
2019-05-23T13:28:27.968Z,35.65
2019-05-23T13:30:57.328Z,35.95
2019-05-23T13:33:26.598Z,36.41
2019-05-23T13:35:55.836Z,36.81
2019-05-23T13:38:25.122Z,37.37
2019-05-23T13:40:54.423Z,37.72
2019-05-23T13:43:24.176Z,37.98
2019-05-23T13:45:53.724Z,37.98
2019-05-23T13:48:27.623Z,39.19
2019-05-23T13:50:53.974Z,38.48
2019-05-23T13:53:23.380Z,38.33
2019-05-23T13:55:52.717Z,38.29
2019-05-23T13:58:22.089Z,38.75
2019-05-23T14:00:51.564Z,38.84
2019-05-23T14:03:21.390Z,38.87
2019-05-23T14:05:50.564Z,39.54
2019-05-23T14:08:19.762Z,38.88
2019-05-23T14:10:49.120Z,38.97
2019-05-23T14:13:18.341Z,38.73
2019-05-23T14:15:52.129Z,38.91
2019-05-23T14:18:23.113Z,39.49
2019-05-23T14:20:52.380Z,42.02
2019-05-23T14:23:23.182Z,38.81
2019-05-23T14:25:54.192Z,38.39
2019-05-23T14:28:23.853Z,38.76
2019-05-23T14:30:57.803Z,39.38
2019-05-23T14:33:29.263Z,39.18
2019-05-23T14:36:02.884Z,39.19
2019-05-23T14:38:33.726Z,39.17
2019-05-23T14:41:02.894Z,39.60
2019-05-23T14:43:32.083Z,38.90
2019-05-23T14:46:14.781Z,38.72
2019-05-23T14:48:46.330Z,39.86
2019-05-23T14:51:17.170Z,38.60
2019-05-23T14:53:51.966Z,37.07
2019-05-23T14:56:23.108Z,37.11
2019-05-23T14:58:53.020Z,36.96
2019-05-23T15:01:23.780Z,36.52
2019-05-23T15:03:53.262Z,35.72
2019-05-23T15:06:22.990Z,35.94
2019-05-23T15:08:52.487Z,35.82
2019-05-23T15:11:21.977Z,35.93
2019-05-23T15:13:51.488Z,35.93
2019-05-23T15:16:20.844Z,34.78
2019-05-23T15:18:50.053Z,35.86
2019-05-23T15:21:19.384Z,36.83
2019-05-23T15:23:48.634Z,35.77
2019-05-23T15:26:22.896Z,35.11
2019-05-23T15:28:48.745Z,36.36
2019-05-23T15:31:18.073Z,34.99
2019-05-23T15:33:47.204Z,34.57
2019-05-23T15:36:16.439Z,34.83
2019-05-23T15:38:45.619Z,34.97
2019-05-23T15:41:14.865Z,34.30
2019-05-23T15:43:44.433Z,34.40
2019-05-23T15:46:13.672Z,34.55
2019-05-23T15:48:43.005Z,33.67
2019-05-23T15:51:13.828Z,33.28
2019-05-23T15:53:50.400Z,33.38
2019-05-23T15:56:28.802Z,33.54
2019-05-23T15:59:11.720Z,33.53
2019-05-23T16:01:48.159Z,32.59
2019-05-23T16:04:21.743Z,32.41
2019-05-23T16:06:52.048Z,31.69
2019-05-23T16:09:29.463Z,32.54
2019-05-23T16:11:53.016Z,32.38
2019-05-23T16:14:23.576Z,33.15
2019-05-23T16:16:56.413Z,32.79
2019-05-23T16:19:24.327Z,33.15
2019-05-23T16:21:53.514Z,34.12
2019-05-23T16:24:23.137Z,34.28
2019-05-23T16:26:52.400Z,33.42
2019-05-23T16:29:21.733Z,33.28
2019-05-23T16:31:51.233Z,33.68
2019-05-23T16:34:20.587Z,34.19
2019-05-23T16:36:49.876Z,33.88
2019-05-23T16:39:19.228Z,34.05
2019-05-23T16:41:48.482Z,34.52
2019-05-23T16:44:20.229Z,34.70
2019-05-23T16:46:49.554Z,34.74
2019-05-23T16:49:18.925Z,34.10
2019-05-23T16:51:48.163Z,34.47
2019-05-23T16:54:26.825Z,34.88
2019-05-23T16:57:03.598Z,34.68
2019-05-23T16:59:37.004Z,34.66
2019-05-23T17:02:24.313Z,36.26
2019-05-23T17:05:16.316Z,36.35
2019-05-23T17:07:45.879Z,35.80
2019-05-23T17:10:23.668Z,35.84
2019-05-23T17:13:00.611Z,35.98
2019-05-23T17:15:34.539Z,35.99
2019-05-23T17:18:08.171Z,36.53
2019-05-23T17:20:41.855Z,36.56
2019-05-23T17:23:24.474Z,37.36
2019-05-23T17:25:58.439Z,36.83
2019-05-23T17:28:38.432Z,36.61
2019-05-23T17:31:09.587Z,36.95
2019-05-23T17:33:38.911Z,37.16
2019-05-23T17:36:08.100Z,37.22
2019-05-23T17:38:37.294Z,36.88
2019-05-23T17:41:24.751Z,36.71
2019-05-23T17:43:54.084Z,36.73
2019-05-23T17:46:23.329Z,37.24
2019-05-23T17:48:52.525Z,36.99
2019-05-23T17:51:21.877Z,36.87
2019-05-23T17:53:51.022Z,36.79
2019-05-23T17:56:20.283Z,36.81
2019-05-23T17:58:49.562Z,36.79
2019-05-23T18:01:19.540Z,37.43
2019-05-23T18:03:48.718Z,36.96
2019-05-23T18:06:17.918Z,37.56
2019-05-23T18:08:47.603Z,37.03
2019-05-23T18:11:16.870Z,37.37
2019-05-23T18:13:46.214Z,36.92
2019-05-23T18:16:16.243Z,36.92
2019-05-23T18:18:45.493Z,37.18
2019-05-23T18:21:14.680Z,36.84
2019-05-23T18:23:44.714Z,36.45
2019-05-23T18:26:13.997Z,36.50
2019-05-23T18:28:43.549Z,36.81
2019-05-23T18:31:26.676Z,36.56
2019-05-23T18:33:55.788Z,36.52
2019-05-23T18:36:25.422Z,37.14
2019-05-23T18:38:55.492Z,37.22
2019-05-23T18:41:25.104Z,37.56
2019-05-23T18:43:54.971Z,37.33
2019-05-23T18:46:37.467Z,37.56
2019-05-23T18:49:07.887Z,37.71
2019-05-23T18:51:37.118Z,37.59
2019-05-23T18:54:06.613Z,37.22
2019-05-23T18:56:35.797Z,37.08
2019-05-23T18:59:05.822Z,37.30
2019-05-23T19:01:35.270Z,37.52
2019-05-23T19:04:04.890Z,37.62
2019-05-23T19:06:34.766Z,38.29
2019-05-23T19:09:07.094Z,38.27
2019-05-23T19:11:36.542Z,38.07
2019-05-23T19:14:05.816Z,38.51
2019-05-23T19:16:35.524Z,38.37
2019-05-23T19:19:04.866Z,38.44
2019-05-23T19:21:34.580Z,38.44
2019-05-23T19:24:04.772Z,38.79
2019-05-23T19:26:34.397Z,38.59
2019-05-23T19:29:03.809Z,38.41
2019-05-23T19:31:33.136Z,38.28
2019-05-23T19:34:02.470Z,38.21
2019-05-23T19:36:32.369Z,38.11
2019-05-23T19:39:01.556Z,38.06
2019-05-23T19:41:37.367Z,38.12
2019-05-23T19:44:02.616Z,38.21
2019-05-23T19:46:32.164Z,38.18
2019-05-23T19:49:01.375Z,38.40
2019-05-23T19:51:31.480Z,38.39
2019-05-23T19:54:01.316Z,38.55
2019-05-23T19:56:30.779Z,38.54
2019-05-23T19:59:00.219Z,38.71
2019-05-23T20:01:32.327Z,38.54
2019-05-23T20:04:01.755Z,38.79
2019-05-23T20:06:31.116Z,38.89
2019-05-23T20:09:01.819Z,39.02
2019-05-23T20:11:31.021Z,38.95
2019-05-23T20:14:00.209Z,39.03
2019-05-23T20:16:29.417Z,39.06
2019-05-23T20:18:58.937Z,38.90
2019-05-23T20:21:28.797Z,39.06
2019-05-23T20:23:58.047Z,39.30
2019-05-23T20:26:27.697Z,39.45
2019-05-23T20:28:57.264Z,39.41
2019-05-23T20:31:26.481Z,39.50
2019-05-23T20:33:56.101Z,39.36
2019-05-23T20:36:25.358Z,39.20
2019-05-23T20:38:54.559Z,39.16
2019-05-23T20:41:23.821Z,39.23
2019-05-23T20:43:53.572Z,39.59
2019-05-23T20:46:22.936Z,39.51
2019-05-23T20:48:52.203Z,39.47
2019-05-23T20:51:23.011Z,39.65
2019-05-23T20:53:52.300Z,39.54
2019-05-23T20:56:21.529Z,39.63
2019-05-23T20:58:50.705Z,39.60
2019-05-23T21:01:21.554Z,39.54
2019-05-23T21:03:51.310Z,39.67
2019-05-23T21:06:20.499Z,39.83
2019-05-23T21:08:49.727Z,40.03
2019-05-23T21:11:18.908Z,40.07
2019-05-23T21:13:49.091Z,40.18
2019-05-23T21:16:18.644Z,40.56
2019-05-23T21:18:50.051Z,40.34
2019-05-23T21:21:20.102Z,40.51
2019-05-23T21:23:49.701Z,40.42
2019-05-23T21:26:19.135Z,40.53
2019-05-23T21:28:48.403Z,40.55
2019-05-23T21:31:19.315Z,40.54
2019-05-23T21:33:48.689Z,40.73
2019-05-23T21:36:17.977Z,40.79
2019-05-23T21:38:47.283Z,40.84
2019-05-23T21:41:16.913Z,40.99
2019-05-23T21:43:50.940Z,41.10
2019-05-23T21:46:20.195Z,41.46
2019-05-23T21:48:51.374Z,41.63
2019-05-23T21:51:20.539Z,41.82
2019-05-23T21:53:49.813Z,41.87
2019-05-23T21:56:18.992Z,41.75
2019-05-23T21:58:48.177Z,41.75
2019-05-23T22:01:20.673Z,41.77
2019-05-23T22:04:06.906Z,41.72
2019-05-23T22:06:37.970Z,41.71
2019-05-23T22:09:14.630Z,41.96
2019-05-23T22:11:43.734Z,42.15
2019-05-23T22:14:12.907Z,42.18
2019-05-23T22:16:42.216Z,42.17
2019-05-23T22:19:13.101Z,42.01
2019-05-23T22:21:42.412Z,42.17
2019-05-23T22:24:11.970Z,42.25
2019-05-23T22:26:41.155Z,42.28
2019-05-23T22:29:10.339Z,42.09
2019-05-23T22:31:39.583Z,42.36
2019-05-23T22:34:10.396Z,42.40
2019-05-23T22:36:41.597Z,42.46
2019-05-23T22:39:10.979Z,42.20
2019-05-23T22:41:40.191Z,42.20
2019-05-23T22:44:09.555Z,42.24
2019-05-23T22:46:39.067Z,42.38
2019-05-23T22:49:08.205Z,42.21
2019-05-23T22:51:37.319Z,42.50
2019-05-23T22:54:06.507Z,42.35
2019-05-23T22:56:35.668Z,42.33
2019-05-23T22:59:05.185Z,42.48
2019-05-23T23:01:34.937Z,42.51
2019-05-23T23:04:04.399Z,42.58
2019-05-23T23:06:34.353Z,42.70
2019-05-23T23:09:05.035Z,43.09
2019-05-23T23:11:34.241Z,43.06
2019-05-23T23:14:03.495Z,43.18
2019-05-23T23:16:32.679Z,43.44
2019-05-23T23:19:02.427Z,43.50
2019-05-23T23:21:31.771Z,43.22
2019-05-23T23:24:00.966Z,43.62
2019-05-23T23:26:30.166Z,43.55
2019-05-23T23:28:59.800Z,43.47
2019-05-23T23:31:28.970Z,43.55
2019-05-23T23:33:58.143Z,43.58
2019-05-23T23:36:27.317Z,43.31
2019-05-23T23:38:56.587Z,43.11
2019-05-23T23:41:25.777Z,43.23
2019-05-23T23:43:59.264Z,43.22
2019-05-23T23:46:43.758Z,43.13
2019-05-23T23:49:30.482Z,43.11
2019-05-23T23:52:17.611Z,43.38
2019-05-23T23:55:04.847Z,43.18
2019-05-23T23:57:52.141Z,43.23
